Time;durP1;ratioP1;P1;durP2;ratioP2;P2;SDS_P1;SDS_P2;PMS_P1;PMS_P2;Temp;Humidity;BMP_temperature;BMP_pressure;BME280_temperature;BME280_humidity;BME280_pressure;Samples;Min_cycle;Max_cycle;Signal;HPM_P1;HPM_P2
2023/04/29 00:00:07;;;;;;;18.20;15.27;;;;;;;9.26;100.00;101767.34;6122534;23;20382;-70
2023/04/29 00:02:33;;;;;;;16.57;14.10;;;;;;;9.11;100.00;101763.63;6122593;23;20480;-69
2023/04/29 00:04:58;;;;;;;20.20;15.43;;;;;;;9.17;100.00;101771.03;6123136;23;20405;-70
2023/04/29 00:07:24;;;;;;;19.23;13.63;;;;;;;9.18;100.00;101767.34;6122658;23;20593;-69
2023/04/29 00:09:49;;;;;;;17.93;13.60;;;;;;;8.72;100.00;101696.56;6122004;23;20515;-69
2023/04/29 00:12:14;;;;;;;15.67;12.93;;;;;;;8.92;100.00;101748.75;6123075;23;20192;-70
2023/04/29 00:14:42;;;;;;;15.30;11.70;;;;;;;9.05;100.00;101775.00;6121293;23;20178;-70
2023/04/29 00:17:07;;;;;;;15.80;12.40;;;;;;;9.09;100.00;101778.22;6119908;23;20762;-70
2023/04/29 00:19:33;;;;;;;13.80;11.63;;;;;;;8.93;100.00;101752.25;6120469;23;20517;-69
2023/04/29 00:21:58;;;;;;;16.87;13.97;;;;;;;8.67;100.00;101698.91;6119738;23;20178;-70
2023/04/29 00:24:24;;;;;;;16.20;12.50;;;;;;;9.03;100.00;101777.03;6094927;23;20237;-70
2023/04/29 00:26:50;;;;;;;16.30;13.20;;;;;;;8.93;100.00;101747.75;6119249;23;20161;-69
2023/04/29 00:29:16;;;;;;;19.67;12.83;;;;;;;9.05;100.00;101778.56;6095612;23;20204;-70
2023/04/29 00:31:41;;;;;;;16.53;13.00;;;;;;;9.03;100.00;101782.41;6120896;23;20790;-69
2023/04/29 00:34:07;;;;;;;17.50;13.03;;;;;;;8.96;100.00;101754.59;6095591;23;20185;-70
2023/04/29 00:36:32;;;;;;;17.63;13.53;;;;;;;9.13;100.00;101782.22;6122694;23;20157;-69
2023/04/29 00:38:58;;;;;;;16.57;12.53;;;;;;;8.60;100.00;101737.00;6122552;23;20153;-69
2023/04/29 00:41:24;;;;;;;19.30;12.80;;;;;;;8.89;100.00;101767.00;6122543;23;20518;-69
2023/04/29 00:43:51;;;;;;;17.30;13.40;;;;;;;9.04;100.00;101787.56;6122340;23;20401;-69
2023/04/29 00:46:17;;;;;;;18.23;13.00;;;;;;;8.64;100.00;101729.47;6122504;23;20385;-69
2023/04/29 00:48:42;;;;;;;16.90;12.87;;;;;;;8.77;100.00;101761.13;6122309;23;20377;-69
2023/04/29 00:51:08;;;;;;;16.60;13.03;;;;;;;8.91;100.00;101791.72;6122295;23;20259;-70
2023/04/29 00:53:34;;;;;;;17.27;13.20;;;;;;;8.77;100.00;101774.50;6122891;23;20157;-70
2023/04/29 00:56:01;;;;;;;17.33;13.40;;;;;;;8.44;100.00;101726.25;6122147;23;20464;-69
2023/04/29 00:58:32;;;;;;;14.23;12.50;;;;;;;8.68;100.00;101770.09;6121261;23;20928;-70
2023/04/29 01:00:59;;;;;;;14.73;12.07;;;;;;;8.87;100.00;101806.44;6120717;23;20407;-70
2023/04/29 01:03:25;;;;;;;17.07;11.60;;;;;;;9.00;100.00;101814.84;6095748;23;20464;-70
2023/04/29 01:06:03;;;;;;;18.43;12.60;;;;;;;9.04;100.00;101814.31;6119413;23;20492;-69
2023/04/29 01:09:10;;;;;;;19.17;13.33;;;;;;;8.92;100.00;101810.31;6120159;23;20763;-70
2023/04/29 01:11:52;;;;;;;14.83;11.67;;;;;;;8.81;100.00;101819.47;6002655;23;20982;-69
2023/04/29 01:14:17;;;;;;;13.17;10.60;;;;;;;8.84;100.00;101820.97;6000499;23;20425;-69
2023/04/29 01:17:09;;;;;;;18.10;12.07;;;;;;;8.63;100.00;101777.81;6068571;23;20725;-70
2023/04/29 01:19:47;;;;;;;16.00;11.60;;;;;;;9.07;100.00;101831.91;6120548;23;20138;-69
2023/04/29 01:22:17;;;;;;;13.70;10.90;;;;;;;8.63;100.00;101778.63;6119531;23;20401;-70
2023/04/29 01:24:42;;;;;;;13.07;10.70;;;;;;;8.69;100.00;101788.69;6119086;23;20370;-69
2023/04/29 01:27:46;;;;;;;12.93;11.17;;;;;;;8.96;100.00;101838.38;6092542;23;20398;-69
2023/04/29 01:30:45;;;;;;;15.90;12.33;;;;;;;8.97;100.00;101841.94;6093402;23;20150;-69
2023/04/29 01:33:48;;;;;;;15.43;12.70;;;;;;;8.93;100.00;101845.91;6117937;23;20464;-69
2023/04/29 01:36:22;;;;;;;16.90;12.10;;;;;;;8.91;100.00;101853.25;6118034;23;20872;-70
2023/04/29 01:39:07;;;;;;;17.00;11.97;;;;;;;8.95;100.00;101854.63;6092127;23;20451;-69
2023/04/29 01:41:41;;;;;;;18.40;12.87;;;;;;;8.91;100.00;101855.94;6119725;23;20398;-69
2023/04/29 01:44:13;;;;;;;15.33;12.73;;;;;;;8.86;100.00;101820.81;6117926;23;21114;-70
2023/04/29 01:46:40;;;;;;;18.43;14.87;;;;;;;9.12;100.00;101859.00;6119208;23;20374;-70
2023/04/29 01:49:06;;;;;;;15.80;13.83;;;;;;;9.02;100.00;101850.28;6118829;23;20440;-70
2023/04/29 01:51:33;;;;;;;21.57;14.30;;;;;;;8.92;100.00;101847.75;6120401;23;20401;-70
2023/04/29 01:53:58;;;;;;;17.53;13.07;;;;;;;8.69;100.00;101831.47;6092631;23;20437;-69
2023/04/29 01:56:23;;;;;;;20.40;14.50;;;;;;;8.93;100.00;101870.81;6118128;23;20851;-70
2023/04/29 01:58:49;;;;;;;17.50;14.60;;;;;;;8.83;100.00;101862.13;6119358;23;20518;-70
2023/04/29 02:01:14;;;;;;;21.80;13.97;;;;;;;8.80;100.00;101865.94;6119570;23;20667;-70
2023/04/29 02:03:40;;;;;;;16.13;13.50;;;;;;;8.53;100.00;101804.66;6119796;23;20508;-69
2023/04/29 02:06:05;;;;;;;18.17;12.60;;;;;;;8.58;100.00;101824.56;6118345;23;20504;-70
2023/04/29 02:08:31;;;;;;;26.93;14.27;;;;;;;9.04;100.00;101891.09;6119433;23;20157;-70
2023/04/29 02:10:58;;;;;;;17.50;13.10;;;;;;;8.76;100.00;101890.50;6120844;23;20194;-70
2023/04/29 02:13:24;;;;;;;18.53;13.63;;;;;;;8.78;100.00;101875.13;6121170;23;20424;-70
2023/04/29 02:15:49;;;;;;;22.17;14.77;;;;;;;8.88;100.00;101896.41;6119959;23;20429;-69
2023/04/29 02:18:15;;;;;;;19.80;13.87;;;;;;;9.00;100.00;101895.94;6120289;23;20544;-69
2023/04/29 02:20:41;;;;;;;17.63;13.80;;;;;;;8.94;100.00;101901.97;6119937;23;20157;-70
2023/04/29 02:23:06;;;;;;;14.53;11.57;;;;;;;8.94;100.00;101896.59;6119406;23;20162;-69
2023/04/29 02:25:31;;;;;;;22.13;13.10;;;;;;;9.04;100.00;101916.03;6093774;23;20157;-70
2023/04/29 02:27:57;;;;;;;16.97;13.27;;;;;;;8.62;100.00;101870.56;6120005;23;20371;-70
2023/04/29 02:30:22;;;;;;;15.30;11.90;;;;;;;8.75;100.00;101892.34;6120876;23;20200;-70
2023/04/29 02:32:48;;;;;;;18.20;11.97;;;;;;;8.90;100.00;101918.47;6120437;23;20173;-70
2023/04/29 02:35:13;;;;;;;21.47;12.70;;;;;;;8.74;100.00;101871.94;6120541;23;20177;-70
2023/04/29 02:37:38;;;;;;;18.50;12.83;;;;;;;8.85;100.00;101912.78;6119154;23;20241;-69
2023/04/29 02:40:04;;;;;;;15.57;11.67;;;;;;;8.89;100.00;101906.94;6093390;23;20180;-70
2023/04/29 02:42:30;;;;;;;16.87;12.00;;;;;;;8.58;100.00;101877.22;6120569;23;20181;-70
2023/04/29 02:44:56;;;;;;;14.93;11.67;;;;;;;8.96;100.00;101931.22;6121438;23;20374;-69
2023/04/29 02:47:22;;;;;;;15.90;11.73;;;;;;;8.98;100.00;101926.53;6120939;23;20160;-70
2023/04/29 02:49:47;;;;;;;22.13;13.27;;;;;;;8.67;100.00;101907.53;6119746;23;20405;-69
2023/04/29 02:52:13;;;;;;;18.50;11.47;;;;;;;8.79;100.00;101933.84;6120948;23;20663;-69
2023/04/29 02:54:38;;;;;;;16.00;11.33;;;;;;;8.87;100.00;101941.03;6093467;23;20177;-70
2023/04/29 02:57:04;;;;;;;19.50;12.00;;;;;;;8.77;100.00;101946.53;6118668;23;20620;-70
2023/04/29 02:59:29;;;;;;;17.40;13.70;;;;;;;8.65;100.00;101926.41;6121957;23;20592;-69
2023/04/29 03:01:55;;;;;;;16.83;12.20;;;;;;;8.81;100.00;101953.22;6121688;23;20682;-69
2023/04/29 03:04:21;;;;;;;20.60;11.77;;;;;;;8.75;100.00;101958.38;6121228;23;20150;-69
2023/04/29 03:06:46;;;;;;;15.13;11.47;;;;;;;8.24;100.00;101867.31;6122325;23;20388;-69
2023/04/29 03:09:13;;;;;;;20.27;11.63;;;;;;;8.77;100.00;101954.56;6121253;23;20278;-70
2023/04/29 03:11:38;;;;;;;16.60;11.73;;;;;;;8.47;100.00;101934.47;6118874;23;20256;-69
2023/04/29 03:14:04;;;;;;;15.70;11.80;;;;;;;8.57;100.00;101951.28;6120106;23;20445;-70
2023/04/29 03:16:30;;;;;;;18.90;11.80;;;;;;;8.71;100.00;101976.59;6121481;23;20158;-69
2023/04/29 03:18:56;;;;;;;19.73;11.33;;;;;;;8.73;100.00;101979.09;6121144;23;20229;-69
2023/04/29 03:21:22;;;;;;;15.97;12.73;;;;;;;8.70;100.00;101988.28;6122000;23;20413;-69
2023/04/29 03:23:48;;;;;;;13.70;11.13;;;;;;;8.77;100.00;101986.66;6122368;23;20374;-69
2023/04/29 03:26:13;;;;;;;19.03;12.50;;;;;;;8.49;100.00;101945.88;6120267;23;20154;-70
2023/04/29 03:28:39;;;;;;;17.27;12.03;;;;;;;8.67;100.00;101993.94;6120108;23;20456;-69
2023/04/29 03:31:04;;;;;;;13.47;10.93;;;;;;;8.75;100.00;101998.50;6120294;23;20174;-69
2023/04/29 03:33:29;;;;;;;15.60;11.30;;;;;;;8.76;100.00;101997.50;6119963;23;20158;-69
2023/04/29 03:35:55;;;;;;;14.40;12.60;;;;;;;8.54;100.00;101974.81;6120527;23;20479;-69
2023/04/29 03:38:20;;;;;;;20.03;13.97;;;;;;;8.40;100.00;101917.41;6121197;23;20228;-70
2023/04/29 03:40:46;;;;;;;15.17;12.30;;;;;;;8.69;100.00;101994.63;6120280;23;20421;-70
2023/04/29 03:43:12;;;;;;;14.50;12.37;;;;;;;8.65;100.00;102001.31;6121219;23;20150;-70
2023/04/29 03:45:38;;;;;;;17.07;13.40;;;;;;;8.28;100.00;101951.56;6119437;23;20370;-70
2023/04/29 03:48:04;;;;;;;15.80;12.60;;;;;;;8.54;100.00;102009.59;6119999;23;20762;-69
2023/04/29 03:50:29;;;;;;;14.90;13.10;;;;;;;8.67;100.00;102015.34;6120376;23;20539;-69
2023/04/29 03:52:56;;;;;;;16.83;13.00;;;;;;;8.67;100.00;102018.00;6120629;23;20386;-69
2023/04/29 03:55:22;;;;;;;17.87;13.70;;;;;;;8.74;100.00;102013.72;6120926;23;20355;-69
2023/04/29 03:57:47;;;;;;;16.97;12.70;;;;;;;8.47;100.00;101987.97;6120892;23;20762;-69
2023/04/29 04:00:13;;;;;;;15.77;12.87;;;;;;;8.77;100.00;102031.31;6094523;23;20244;-69
2023/04/29 04:02:38;;;;;;;15.50;12.87;;;;;;;8.30;100.00;101964.75;6120149;23;20177;-70
2023/04/29 04:05:04;;;;;;;16.20;13.63;;;;;;;8.53;100.00;101999.88;6118030;23;20153;-69
2023/04/29 04:07:29;;;;;;;16.60;13.40;;;;;;;8.43;100.00;101991.94;6121578;23;20356;-69
2023/04/29 04:09:55;;;;;;;18.47;13.60;;;;;;;8.58;100.00;102043.03;6121506;23;20180;-70
2023/04/29 04:12:20;;;;;;;20.30;12.60;;;;;;;8.66;100.00;102036.91;6122156;23;20189;-70
2023/04/29 04:14:46;;;;;;;17.77;14.93;;;;;;;8.62;100.00;102046.22;6120732;23;20268;-70
2023/04/29 04:17:11;;;;;;;16.03;12.80;;;;;;;8.50;100.00;102013.56;6120371;23;20153;-70
2023/04/29 04:19:36;;;;;;;17.10;14.00;;;;;;;8.58;100.00;102019.78;6121368;23;20205;-69
2023/04/29 04:22:03;;;;;;;14.83;12.20;;;;;;;8.75;100.00;102050.16;6095825;23;20181;-70
2023/04/29 04:24:29;;;;;;;15.17;11.63;;;;;;;8.65;100.00;102044.09;6121903;23;20165;-69
2023/04/29 04:26:54;;;;;;;15.20;12.60;;;;;;;8.60;100.00;102038.38;6121543;23;20374;-69
2023/04/29 04:29:19;;;;;;;17.40;11.97;;;;;;;8.35;100.00;102014.06;6095275;23;20193;-70
2023/04/29 04:31:45;;;;;;;21.20;11.90;;;;;;;8.42;100.00;102043.75;6096042;23;20601;-70
2023/04/29 04:34:10;;;;;;;15.20;10.80;;;;;;;8.61;100.00;102061.44;6094438;23;20191;-69
2023/04/29 04:36:36;;;;;;;15.03;11.03;;;;;;;8.53;100.00;102042.66;6121622;23;20210;-69
2023/04/29 04:39:02;;;;;;;15.73;12.07;;;;;;;8.46;100.00;102042.44;6122017;23;20150;-69
2023/04/29 04:41:30;;;;;;;12.77;11.00;;;;;;;8.62;100.00;102071.16;6095304;23;20487;-70
2023/04/29 04:43:55;;;;;;;14.27;10.60;;;;;;;8.66;100.00;102085.88;6096242;23;20192;-70
2023/04/29 04:46:21;;;;;;;12.97;11.00;;;;;;;8.64;100.00;102082.53;6121794;23;20829;-70
2023/04/29 04:48:46;;;;;;;15.50;11.40;;;;;;;8.43;100.00;102045.44;6120172;23;20154;-69
2023/04/29 04:51:13;;;;;;;12.60;10.00;;;;;;;8.70;100.00;102107.81;6121421;23;20478;-69
2023/04/29 04:53:39;;;;;;;12.17;9.90;;;;;;;8.27;100.00;102015.84;6121672;23;20181;-70
2023/04/29 04:56:05;;;;;;;14.50;11.03;;;;;;;8.69;100.00;102106.97;6121869;23;20370;-70
2023/04/29 04:58:31;;;;;;;11.60;10.40;;;;;;;8.05;100.00;102020.69;6122739;23;20472;-70
2023/04/29 05:00:57;;;;;;;13.87;11.10;;;;;;;7.97;100.00;102012.59;6096343;23;20488;-69
2023/04/29 05:03:23;;;;;;;12.13;10.83;;;;;;;8.45;100.00;102085.41;6121099;23;20386;-70
2023/04/29 05:05:56;;;;;;;15.50;11.87;;;;;;;8.71;100.00;102123.72;6094008;23;20385;-70
2023/04/29 05:08:21;;;;;;;14.23;10.33;;;;;;;8.29;100.00;102075.34;6121489;23;20932;-70
2023/04/29 05:10:47;;;;;;;22.93;11.40;;;;;;;8.08;100.00;102054.28;6121195;23;20410;-69
2023/04/29 05:13:12;;;;;;;12.20;10.53;;;;;;;8.36;100.00;102061.22;6121806;23;20214;-69
2023/04/29 05:15:37;;;;;;;15.07;10.67;;;;;;;8.73;100.00;102115.53;6120475;23;20181;-69
2023/04/29 05:18:03;;;;;;;13.97;11.10;;;;;;;8.97;100.00;102130.94;6119872;23;20213;-69
2023/04/29 05:20:28;;;;;;;18.90;10.63;;;;;;;8.73;100.00;102116.34;6118339;23;20897;-69
2023/04/29 05:22:54;;;;;;;11.87;10.67;;;;;;;8.81;100.00;102116.41;6119905;23;20160;-69
2023/04/29 05:25:19;;;;;;;13.80;9.60;;;;;;;8.72;100.00;102098.63;6092615;23;20228;-70
2023/04/29 05:27:45;;;;;;;12.87;9.80;;;;;;;8.82;100.00;102120.81;6093001;23;20164;-69
2023/04/29 05:30:11;;;;;;;13.10;10.20;;;;;;;8.44;100.00;102064.97;6093825;23;20181;-70
2023/04/29 05:32:36;;;;;;;15.17;10.60;;;;;;;8.72;100.00;102114.69;6094175;23;20253;-70
2023/04/29 05:35:02;;;;;;;14.67;10.20;;;;;;;8.78;100.00;102118.56;6118565;23;20441;-70
2023/04/29 05:37:29;;;;;;;13.63;9.30;;;;;;;8.81;100.00;102118.25;6119568;23;20154;-69
2023/04/29 05:39:56;;;;;;;12.63;9.40;;;;;;;8.70;100.00;102110.47;6119556;23;20233;-69
2023/04/29 05:42:22;;;;;;;11.70;9.47;;;;;;;8.55;100.00;102080.78;6092666;23;20409;-70
2023/04/29 05:44:47;;;;;;;11.53;9.37;;;;;;;8.82;100.00;102131.50;6119303;23;20427;-69
2023/04/29 05:47:13;;;;;;;14.27;8.40;;;;;;;8.30;100.00;102050.28;6119187;23;20421;-69
2023/04/29 05:49:38;;;;;;;12.13;9.07;;;;;;;8.24;100.00;102041.06;6093259;23;20185;-70
2023/04/29 05:52:05;;;;;;;14.93;9.43;;;;;;;8.90;100.00;102148.59;6120616;23;20170;-69
2023/04/29 05:54:32;;;;;;;9.40;8.20;;;;;;;9.00;100.00;102127.94;6093240;23;20606;-69
2023/04/29 05:56:58;;;;;;;12.23;9.30;;;;;;;8.33;100.00;102037.47;6119327;23;20378;-69
2023/04/29 05:59:24;;;;;;;14.73;8.70;;;;;;;8.87;100.00;102120.31;6092904;23;20415;-69
2023/04/29 06:01:49;;;;;;;10.23;8.03;;;;;;;8.58;100.00;102078.63;6093369;23;20803;-69
2023/04/29 06:04:15;;;;;;;14.57;9.23;;;;;;;8.46;100.00;102045.13;6118647;23;20385;-69
2023/04/29 06:06:41;;;;;;;9.80;8.67;;;;;;;8.88;100.00;102118.47;6118057;23;20499;-69
2023/04/29 06:09:06;;;;;;;9.17;8.20;;;;;;;8.57;100.00;102070.78;6093671;23;20172;-69
2023/04/29 06:11:32;;;;;;;9.57;8.53;;;;;;;9.04;100.00;102140.00;6093416;23;20189;-69
2023/04/29 06:13:57;;;;;;;12.00;9.17;;;;;;;9.04;100.00;102123.94;6094611;23;20276;-69
2023/04/29 06:16:23;;;;;;;10.73;8.23;;;;;;;9.09;100.00;102131.50;6119037;23;20158;-69
2023/04/29 06:18:49;;;;;;;11.77;8.17;;;;;;;9.05;100.00;102125.63;6117872;23;20172;-69
2023/04/29 06:21:15;;;;;;;12.77;8.40;;;;;;;8.96;100.00;102132.75;6092974;23;20205;-69
2023/04/29 06:23:40;;;;;;;10.27;8.60;;;;;;;8.83;100.00;102078.81;6118245;23;20181;-69
2023/04/29 06:26:06;;;;;;;9.93;8.30;;;;;;;9.22;100.00;102140.78;6121056;23;20719;-70
2023/04/29 06:28:31;;;;;;;12.00;8.00;;;;;;;9.25;100.00;102126.25;6095849;23;20619;-70
2023/04/29 06:30:57;;;;;;;11.40;8.30;;;;;;;9.25;100.00;102135.09;6120833;23;20257;-70
2023/04/29 06:33:22;;;;;;;10.47;8.10;;;;;;;9.27;100.00;102140.31;6121270;23;20241;-69
2023/04/29 06:35:48;;;;;;;11.53;8.53;;;;;;;9.19;100.00;102127.72;6096291;23;20186;-70
2023/04/29 06:38:13;;;;;;;10.03;8.33;;;;;;;8.64;100.00;102050.44;6095765;23;20162;-70
2023/04/29 06:40:39;;;;;;;11.17;7.70;;;;;;;9.10;100.00;102107.25;6122738;23;20177;-70
2023/04/29 06:43:04;;;;;;;11.07;8.30;;;;;;;9.26;100.00;102125.25;6122703;23;20588;-69
2023/04/29 06:45:30;;;;;;;11.10;7.70;;;;;;;9.30;100.00;102136.50;6122428;23;20188;-70
2023/04/29 06:47:55;;;;;;;10.03;8.07;;;;;;;8.78;100.00;102044.50;6122917;23;20157;-69
2023/04/29 06:50:21;;;;;;;15.13;8.90;;;;;;;9.25;100.00;102121.72;6122531;23;20448;-70
2023/04/29 06:52:46;;;;;;;9.33;7.43;;;;;;;9.39;100.00;102132.84;6122261;23;20174;-70
2023/04/29 06:55:12;;;;;;;8.63;7.40;;;;;;;9.40;100.00;102127.34;6096113;23;20521;-69
2023/04/29 06:57:37;;;;;;;12.30;8.70;;;;;;;9.53;100.00;102134.94;6121891;23;20249;-70
2023/04/29 07:00:03;;;;;;;11.13;8.80;;;;;;;9.08;100.00;102061.06;6121564;23;20593;-70
2023/04/29 07:02:29;;;;;;;13.13;7.90;;;;;;;9.15;100.00;102056.75;6120051;23;20178;-69
2023/04/29 07:04:54;;;;;;;11.60;8.03;;;;;;;9.61;100.00;102129.63;6121641;23;20697;-69
2023/04/29 07:07:20;;;;;;;8.83;7.57;;;;;;;9.67;100.00;102123.63;6122214;23;20196;-69
2023/04/29 07:09:45;;;;;;;11.80;8.27;;;;;;;9.59;100.00;102106.66;6095072;23;20162;-70
2023/04/29 07:12:11;;;;;;;11.90;8.30;;;;;;;9.58;100.00;102110.34;6120375;23;20256;-70
2023/04/29 07:14:36;;;;;;;11.63;7.93;;;;;;;9.71;100.00;102105.38;6122276;23;20527;-70
2023/04/29 07:17:01;;;;;;;9.10;7.83;;;;;;;9.70;100.00;102093.81;6122311;23;20185;-69
2023/04/29 07:19:27;;;;;;;8.60;7.67;;;;;;;7.95;100.00;101808.03;6092877;23;20193;-76
2023/04/29 07:21:52;;;;;;;9.10;7.60;;;;;;;8.45;100.00;101908.94;6119886;23;20158;-76
2023/04/29 07:24:18;;;;;;;10.17;7.93;;;;;;;8.24;100.00;101871.81;6095345;23;20158;-75
2023/04/29 07:26:44;;;;;;;11.07;8.17;;;;;;;7.91;100.00;101767.44;6120706;23;20168;-75
2023/04/29 07:29:10;;;;;;;12.47;7.40;;;;;;;7.74;100.00;101773.69;6091708;23;20611;-75
2023/04/29 07:31:35;;;;;;;9.80;7.70;;;;;;;7.87;100.00;101788.28;6093688;23;20390;-77
2023/04/29 07:34:01;;;;;;;8.70;7.80;;;;;;;8.40;100.00;101863.09;6120268;23;20177;-75
2023/04/29 07:36:27;;;;;;;10.80;7.63;;;;;;;8.70;100.00;101872.44;6119358;23;20161;-74
2023/04/29 07:38:53;;;;;;;10.07;6.83;;;;;;;8.52;100.00;101827.88;6093019;23;20181;-73
2023/04/29 07:41:19;;;;;;;9.37;6.57;;;;;;;9.38;100.00;101930.34;6094786;23;20465;-75
2023/04/29 07:43:45;;;;;;;8.40;6.33;;;;;;;8.82;100.00;101815.81;6094308;23;20416;-74
2023/04/29 07:46:10;;;;;;;8.53;5.93;;;;;;;9.46;100.00;101893.72;6118044;23;20248;-74
2023/04/29 07:48:39;;;;;;;6.57;5.90;;;;;;;7.76;100.00;101558.03;6092932;23;20495;-73
2023/04/29 07:51:05;;;;;;;10.97;5.53;;;;;;;7.79;100.00;101505.13;6120295;23;20192;-74
2023/04/29 07:53:31;;;;;;;9.20;5.70;;;;;;;8.64;100.00;101667.97;6094170;23;20401;-74
2023/04/29 07:55:56;;;;;;;9.47;5.40;;;;;;;9.19;100.00;101693.22;6119017;23;20425;-74
2023/04/29 07:58:22;;;;;;;7.43;5.30;;;;;;;9.39;100.00;101731.19;6119946;23;20158;-74
2023/04/29 08:00:47;;;;;;;7.73;6.00;;;;;;;9.46;100.00;101742.91;6119811;23;20616;-76
2023/04/29 08:03:13;;;;;;;11.60;5.87;;;;;;;8.22;100.00;101535.25;6095423;23;20165;-76
2023/04/29 08:05:38;;;;;;;9.13;5.87;;;;;;;9.57;100.00;101718.44;6121234;23;20145;-74
2023/04/29 08:08:04;;;;;;;8.37;5.53;;;;;;;8.94;100.00;101630.84;6093656;23;20162;-75
2023/04/29 08:10:30;;;;;;;11.50;5.40;;;;;;;9.25;100.00;101692.53;6120517;23;20205;-75
2023/04/29 08:12:56;;;;;;;6.10;5.40;;;;;;;8.20;100.00;101515.03;6095420;23;20710;-75
2023/04/29 08:15:22;;;;;;;7.33;4.80;;;;;;;8.53;100.00;101546.16;6094056;23;20436;-75
2023/04/29 08:17:47;;;;;;;8.20;5.20;;;;;;;8.97;100.00;101601.94;6119761;23;20232;-75
2023/04/29 08:20:13;;;;;;;6.10;4.50;;;;;;;9.75;100.00;101707.53;6121319;23;20632;-75
2023/04/29 08:22:39;;;;;;;6.90;4.70;;;;;;;10.51;100.00;101824.06;6096509;23;20631;-75
2023/04/29 08:25:05;;;;;;;6.33;4.80;;;;;;;10.47;100.00;101821.88;6121960;23;20373;-75
2023/04/29 08:27:30;;;;;;;8.03;5.57;;;;;;;9.74;100.00;101685.22;6122846;23;20675;-77
2023/04/29 08:29:56;;;;;;;6.23;4.80;;;;;;;9.95;100.00;101703.44;6097438;23;20411;-76
2023/04/29 08:32:21;;;;;;;9.60;4.80;;;;;;;10.03;100.00;101712.44;6096465;23;20182;-75
2023/04/29 08:34:47;;;;;;;8.47;5.00;;;;;;;10.42;100.00;101798.28;6121357;23;20188;-76
2023/04/29 08:37:14;;;;;;;7.33;5.20;;;;;;;10.02;100.00;101708.94;6119608;23;20190;-75
2023/04/29 08:39:39;;;;;;;6.33;5.20;;;;;;;9.94;100.00;101668.75;6120698;23;20178;-74
2023/04/29 08:42:08;;;;;;;6.50;4.30;;;;;;;10.25;100.00;101734.97;6094683;23;20948;-74
2023/04/29 08:44:35;;;;;;;5.57;4.07;;;;;;;10.80;100.00;101833.31;6092906;23;20161;-73
2023/04/29 08:47:01;;;;;;;7.07;4.43;;;;;;;10.86;100.00;101819.19;6120331;23;20404;-74
2023/04/29 08:49:32;;;;;;;5.63;5.00;;;;;;;9.94;100.00;101668.75;6094077;23;20409;-73
2023/04/29 08:52:01;;;;;;;7.37;5.77;;;;;;;10.36;100.00;101724.72;6094490;23;20378;-76
2023/04/29 08:54:27;;;;;;;6.77;4.73;;;;;;;9.55;100.00;101588.41;6095153;23;20826;-75
2023/04/29 08:56:54;;;;;;;6.20;4.87;;;;;;;10.17;100.00;101691.09;6094814;23;20390;-75
2023/04/29 08:59:20;;;;;;;5.20;4.43;;;;;;;10.86;100.00;101793.19;6096641;23;20168;-76
2023/04/29 09:01:51;;;;;;;7.37;4.70;;;;;;;11.02;100.00;101805.66;6120952;23;20420;-76
2023/04/29 09:04:29;;;;;;;10.20;4.60;;;;;;;11.03;100.00;101791.22;6094825;23;20401;-72
2023/04/29 09:06:56;;;;;;;6.50;3.97;;;;;;;11.18;100.00;101826.19;6094415;23;20874;-73
2023/04/29 09:09:24;;;;;;;6.87;4.40;;;;;;;10.91;100.00;101759.63;6120854;23;20412;-74
2023/04/29 09:11:49;;;;;;;6.73;4.50;;;;;;;10.40;100.00;101693.84;6120538;23;20374;-76
2023/04/29 09:14:15;;;;;;;4.63;3.43;;;;;;;11.26;100.00;101841.41;6121077;23;20496;-75
2023/04/29 09:16:41;;;;;;;5.07;3.80;;;;;;;10.28;100.00;101673.81;6095195;23;20224;-75
2023/04/29 09:19:06;;;;;;;5.03;3.27;;;;;;;11.24;100.00;101821.97;6120787;23;20856;-75
2023/04/29 09:21:32;;;;;;;3.33;3.03;;;;;;;10.98;100.00;101761.38;6121699;23;20185;-75
2023/04/29 09:24:02;;;;;;;5.90;3.27;;;;;;;10.74;100.00;101724.00;6093743;23;20169;-75
2023/04/29 09:26:41;;;;;;;4.10;2.17;;;;;;;11.30;100.00;101814.00;6091917;23;20571;-74
2023/04/29 09:29:15;;;;;;;5.00;2.60;;;;;;;11.34;100.00;101805.59;6092835;23;20378;-75
2023/04/29 09:31:41;;;;;;;5.70;3.10;;;;;;;10.78;100.00;101727.97;6117411;23;20361;-73
2023/04/29 09:34:07;;;;;;;5.17;3.30;;;;;;;11.30;100.00;101767.50;6117859;23;20429;-74
2023/04/29 09:36:57;;;;;;;5.30;3.27;;;;;;;11.27;100.00;101800.13;6118599;23;20389;-74
2023/04/29 09:39:23;;;;;;;4.20;3.10;;;;;;;10.72;100.00;101665.13;6093743;23;20200;-75
2023/04/29 09:41:49;;;;;;;5.40;2.90;;;;;;;11.44;100.00;101792.75;6093870;23;20382;-76
2023/04/29 09:44:15;;;;;;;4.90;3.20;;;;;;;11.56;100.00;101796.66;6120394;23;20374;-76
2023/04/29 09:46:41;;;;;;;6.57;3.73;;;;;;;10.96;100.00;101700.84;6094403;23;20158;-75
2023/04/29 09:49:27;;;;;;;9.03;4.17;;;;;;;11.09;100.00;101722.56;6120924;23;20892;-75
2023/04/29 09:51:57;;;;;;;6.20;3.73;;;;;;;11.66;100.00;101812.56;6094696;23;20377;-75
2023/04/29 09:54:43;;;;;;;6.10;3.80;;;;;;;11.19;100.00;101733.03;6120945;23;20773;-75
2023/04/29 09:57:10;;;;;;;4.90;3.47;;;;;;;11.73;100.00;101816.16;6092576;23;20385;-75
2023/04/29 09:59:39;;;;;;;4.53;3.27;;;;;;;11.80;100.00;101817.09;6119977;23;20408;-74
2023/04/29 10:02:17;;;;;;;5.17;3.50;;;;;;;11.69;100.00;101823.78;6092499;23;20390;-73
2023/04/29 10:04:52;;;;;;;6.63;3.60;;;;;;;11.70;100.00;101822.75;6093094;23;20857;-74
2023/04/29 10:07:19;;;;;;;4.73;2.70;;;;;;;11.25;100.00;101743.03;6093481;23;20396;-74
2023/04/29 10:09:46;;;;;;;5.33;3.10;;;;;;;11.79;100.00;101828.88;6121715;23;20477;-74
2023/04/29 10:12:15;;;;;;;4.77;3.53;;;;;;;10.73;100.00;101650.72;6096002;23;20854;-75
2023/04/29 10:14:54;;;;;;;4.70;3.60;;;;;;;11.49;100.00;101771.56;6095108;23;20425;-74
2023/04/29 10:17:25;;;;;;;4.47;3.50;;;;;;;11.34;100.00;101750.03;6122081;23;20369;-75
2023/04/29 10:19:59;;;;;;;7.63;4.00;;;;;;;11.24;100.00;101738.69;6122374;23;20732;-75
2023/04/29 10:22:46;;;;;;;7.40;4.37;;;;;;;11.98;100.00;101832.94;6095994;23;20920;-75
2023/04/29 10:25:15;;;;;;;6.43;4.43;;;;;;;12.05;100.00;101830.34;6122755;23;20850;-74
2023/04/29 10:27:44;;;;;;;7.30;3.93;;;;;;;11.15;100.00;101718.31;6123638;23;20392;-75
2023/04/29 10:30:14;;;;;;;7.27;3.70;;;;;;;11.95;100.00;101830.63;6123686;23;20942;-75
2023/04/29 10:32:42;;;;;;;6.87;3.93;;;;;;;11.92;100.00;101828.31;6123884;23;20409;-75
2023/04/29 10:35:10;;;;;;;5.97;3.10;;;;;;;11.61;100.00;101770.09;6123363;23;20417;-75
2023/04/29 10:37:37;;;;;;;5.93;3.13;;;;;;;11.90;100.00;101851.84;6097922;23;20481;-75
2023/04/29 10:40:17;;;;;;;4.43;2.80;;;;;;;11.89;100.00;101860.91;6124158;23;20400;-75
2023/04/29 10:42:45;;;;;;;3.47;2.10;;;;;;;11.76;100.00;101873.09;6123603;23;20850;-73
2023/04/29 10:45:30;;;;;;;2.40;2.00;;;;;;;11.28;100.00;101828.63;6123557;23;20373;-73
2023/04/29 10:48:01;;;;;;;4.03;1.90;;;;;;;11.92;100.00;101925.09;6097737;23;20835;-74
2023/04/29 10:50:28;;;;;;;3.47;1.60;;;;;;;11.70;100.00;101846.09;6123267;23;20432;-75
2023/04/29 10:52:57;;;;;;;2.97;1.93;;;;;;;12.25;100.00;101908.63;6124015;23;20378;-75
2023/04/29 10:55:23;;;;;;;7.17;3.43;;;;;;;11.16;100.00;101749.50;6122529;23;20426;-74
2023/04/29 10:57:52;;;;;;;5.13;2.00;;;;;;;11.72;100.00;101857.50;6123982;23;21127;-74
2023/04/29 11:00:28;;;;;;;4.73;2.80;;;;;;;11.79;100.00;101865.69;6123654;23;20460;-74
2023/04/29 11:02:55;;;;;;;3.90;2.93;;;;;;;12.09;100.00;101898.84;6123952;23;20716;-75
2023/04/29 11:05:34;;;;;;;4.73;2.47;;;;;;;12.04;100.00;101917.41;6122898;23;20374;-74
2023/04/29 11:08:22;;;;;;;5.97;2.83;;;;;;;11.94;100.00;101874.63;6098429;23;20912;-74
2023/04/29 11:10:51;;;;;;;2.10;1.70;;;;;;;11.75;100.00;101823.03;6097446;23;20418;-75
2023/04/29 11:13:24;;;;;;;3.50;1.80;;;;;;;12.47;100.00;101940.03;6097636;23;21084;-75
2023/04/29 11:15:51;;;;;;;2.80;1.97;;;;;;;12.44;100.00;101952.00;6123382;23;20420;-75